createdAt,value
2022-10-19T00:00:49.185Z,102731.56
2022-10-19T00:03:20.710Z,102733.59
2022-10-19T00:05:51.828Z,102730.94
2022-10-19T00:08:19.103Z,102734.25
2022-10-19T00:10:46.375Z,102733.22
2022-10-19T00:13:13.599Z,102739.91
2022-10-19T00:15:41.639Z,102737.25
2022-10-19T00:18:09.547Z,102734.59
2022-10-19T00:20:37.497Z,102736.25
2022-10-19T00:23:06.264Z,102735.25
2022-10-19T00:25:33.571Z,102736.91
2022-10-19T00:28:01.289Z,102735.88
2022-10-19T00:30:28.679Z,102733.06
2022-10-19T00:32:55.984Z,102737.56
2022-10-19T00:35:23.300Z,102733.06
2022-10-19T00:37:51.821Z,102738.19
2022-10-19T00:40:20.486Z,102737.56
2022-10-19T00:42:53.733Z,102733.59
2022-10-19T00:45:20.970Z,102738.59
2022-10-19T00:47:48.444Z,102741.41
2022-10-19T00:50:17.322Z,102744.28
2022-10-19T00:52:44.810Z,102734.13
2022-10-19T00:55:13.384Z,102747.81
2022-10-19T00:57:42.138Z,102740.00
2022-10-19T01:00:10.616Z,102734.66
2022-10-19T01:02:38.184Z,102726.47
2022-10-19T01:05:07.618Z,102718.97
2022-10-19T01:07:35.285Z,102724.97
2022-10-19T01:10:03.471Z,102723.94
2022-10-19T01:12:52.590Z,102727.31
2022-10-19T01:15:32.517Z,102732.66
2022-10-19T01:18:16.359Z,102734.66
2022-10-19T01:21:19.337Z,102730.03
2022-10-19T01:24:37.125Z,102732.88
2022-10-19T01:27:53.201Z,102733.06
2022-10-19T01:30:42.242Z,102728.72
2022-10-19T01:33:27.686Z,102724.38
2022-10-19T01:36:09.242Z,102732.38
2022-10-19T01:38:46.046Z,102737.38
2022-10-19T01:41:19.954Z,102734.56
2022-10-19T01:43:57.126Z,102740.69
2022-10-19T01:46:34.128Z,102742.69
2022-10-19T01:49:13.700Z,102746.03
2022-10-19T01:51:49.445Z,102734.38
2022-10-19T01:54:21.380Z,102742.03
2022-10-19T01:56:52.057Z,102741.00
2022-10-19T01:59:22.551Z,102731.34
2022-10-19T02:01:54.895Z,102719.00
2022-10-19T02:04:24.810Z,102720.69
2022-10-19T02:06:54.943Z,102717.84
2022-10-19T02:09:22.910Z,102717.00
2022-10-19T02:11:57.272Z,102717.34
2022-10-19T02:14:32.643Z,102718.38
2022-10-19T02:17:08.073Z,102721.38
2022-10-19T02:19:36.398Z,102724.03
2022-10-19T02:22:04.132Z,102726.72
2022-10-19T02:24:31.555Z,102730.41
2022-10-19T02:27:00.665Z,102728.72
2022-10-19T02:29:28.530Z,102728.06
2022-10-19T02:31:55.944Z,102724.56
2022-10-19T02:34:26.298Z,102724.91
2022-10-19T02:36:54.302Z,102732.09
2022-10-19T02:39:22.301Z,102733.44
2022-10-19T02:41:57.306Z,102730.97
2022-10-19T02:44:31.197Z,102734.47
2022-10-19T02:47:06.526Z,102738.94
2022-10-19T02:49:37.781Z,102740.44
2022-10-19T02:52:07.477Z,102742.91
2022-10-19T02:54:35.158Z,102740.75
2022-10-19T02:57:11.906Z,102739.38
2022-10-19T02:59:39.123Z,102738.41
2022-10-19T03:02:06.382Z,102744.00
2022-10-19T03:04:35.483Z,102746.97
2022-10-19T03:07:02.938Z,102751.97
2022-10-19T03:09:30.291Z,102748.31
2022-10-19T03:11:57.541Z,102749.13
2022-10-19T03:14:24.777Z,102746.28
2022-10-19T03:16:52.108Z,102744.63
2022-10-19T03:19:19.365Z,102743.97
2022-10-19T03:21:47.950Z,102751.97
2022-10-19T03:24:15.324Z,102745.34
2022-10-19T03:26:42.584Z,102752.50
2022-10-19T03:29:09.953Z,102752.69
2022-10-19T03:31:37.238Z,102754.50
2022-10-19T03:34:04.748Z,102758.00
2022-10-19T03:36:34.853Z,102761.69
2022-10-19T03:39:07.938Z,102757.34
2022-10-19T03:41:37.280Z,102760.50
2022-10-19T03:44:05.434Z,102764.00
2022-10-19T03:46:33.832Z,102759.50
2022-10-19T03:49:01.282Z,102762.97
2022-10-19T03:51:30.753Z,102761.78
2022-10-19T03:54:01.718Z,102762.63
2022-10-19T03:56:32.327Z,102762.44
2022-10-19T03:59:02.314Z,102761.44
2022-10-19T04:01:32.896Z,102763.13
2022-10-19T04:04:03.684Z,102762.75
2022-10-19T04:06:33.778Z,102766.44
2022-10-19T04:09:02.149Z,102762.94
2022-10-19T04:11:32.265Z,102761.44
2022-10-19T04:14:01.204Z,102760.28
2022-10-19T04:16:30.401Z,102767.44
2022-10-19T04:18:58.562Z,102770.94
2022-10-19T04:21:28.796Z,102761.25
2022-10-19T04:24:00.131Z,102774.25
2022-10-19T04:26:28.059Z,102773.94
2022-10-19T04:28:58.033Z,102770.25
2022-10-19T04:31:26.039Z,102783.44
2022-10-19T04:33:53.386Z,102781.94
2022-10-19T04:36:20.783Z,102788.13
2022-10-19T04:38:48.422Z,102782.78
2022-10-19T04:41:19.667Z,102785.56
2022-10-19T04:43:47.959Z,102786.25
2022-10-19T04:46:18.805Z,102790.41
2022-10-19T04:48:48.164Z,102785.38
2022-10-19T04:51:17.258Z,102785.88
2022-10-19T04:53:48.014Z,102784.03
2022-10-19T04:56:18.474Z,102785.69
2022-10-19T04:58:47.199Z,102785.34
2022-10-19T05:01:19.623Z,102791.13
2022-10-19T05:03:48.277Z,102789.81
2022-10-19T05:06:16.267Z,102790.09
2022-10-19T05:08:43.537Z,102789.72
2022-10-19T05:11:14.788Z,102799.06
2022-10-19T05:13:42.686Z,102792.34
2022-10-19T05:16:13.984Z,102796.50
2022-10-19T05:18:42.858Z,102791.63
2022-10-19T05:21:12.495Z,102794.94
2022-10-19T05:23:41.821Z,102788.59
2022-10-19T05:26:13.654Z,102789.25
2022-10-19T05:28:41.335Z,102787.22
2022-10-19T05:31:12.253Z,102780.25
2022-10-19T05:33:40.735Z,102776.25
2022-10-19T05:36:19.322Z,102777.28
2022-10-19T05:38:49.996Z,102777.28
2022-10-19T05:41:17.917Z,102777.91
2022-10-19T05:43:48.089Z,102773.22
2022-10-19T05:46:19.692Z,102772.88
2022-10-19T05:48:48.001Z,102774.53
2022-10-19T05:51:19.135Z,102767.19
2022-10-19T05:53:46.913Z,102767.19
2022-10-19T05:56:17.397Z,102770.00
2022-10-19T05:58:44.988Z,102770.84
2022-10-19T06:01:13.056Z,102767.00
2022-10-19T06:03:41.054Z,102761.31
2022-10-19T06:06:09.648Z,102770.94
2022-10-19T06:08:39.205Z,102769.13
2022-10-19T06:11:10.247Z,102773.47
2022-10-19T06:13:39.281Z,102773.47
2022-10-19T06:16:09.157Z,102775.09
2022-10-19T06:18:37.144Z,102766.44
2022-10-19T06:21:08.046Z,102780.00
2022-10-19T06:23:38.419Z,102778.16
2022-10-19T06:26:09.237Z,102772.81
2022-10-19T06:28:39.708Z,102786.81
2022-10-19T06:31:09.390Z,102777.63
2022-10-19T06:33:38.814Z,102787.09
2022-10-19T06:36:07.292Z,102795.75
2022-10-19T06:38:34.684Z,102796.59
2022-10-19T06:41:07.104Z,102805.25
2022-10-19T06:43:35.753Z,102806.06
2022-10-19T06:46:05.656Z,102811.03
2022-10-19T06:48:33.078Z,102811.34
2022-10-19T06:51:06.268Z,102813.66
2022-10-19T06:53:35.248Z,102807.13
2022-10-19T06:56:06.905Z,102805.13
2022-10-19T06:58:36.501Z,102809.94
2022-10-19T07:01:05.624Z,102806.91
2022-10-19T07:03:33.208Z,102808.53
2022-10-19T07:06:03.548Z,102815.19
2022-10-19T07:08:33.495Z,102818.31
2022-10-19T07:11:06.626Z,102815.47
2022-10-19T07:13:35.386Z,102813.47
2022-10-19T07:16:06.761Z,102813.25
2022-10-19T07:18:36.302Z,102813.75
2022-10-19T07:21:06.628Z,102822.41
2022-10-19T07:23:36.385Z,102819.19
2022-10-19T07:26:12.300Z,102825.16
2022-10-19T07:28:40.851Z,102833.19
2022-10-19T07:31:10.894Z,102828.69
2022-10-19T07:33:38.514Z,102833.63
2022-10-19T07:36:09.357Z,102830.59
2022-10-19T07:38:37.639Z,102833.56
2022-10-19T07:41:09.893Z,102841.88
2022-10-19T07:43:37.292Z,102836.16
2022-10-19T07:46:08.588Z,102840.09
2022-10-19T07:48:37.076Z,102837.88
2022-10-19T07:51:07.495Z,102839.34
2022-10-19T07:53:36.279Z,102846.38
2022-10-19T07:56:06.026Z,102833.00
2022-10-19T07:58:36.368Z,102845.53
2022-10-19T08:01:08.062Z,102839.81
2022-10-19T08:04:31.785Z,102848.22
2022-10-19T08:06:25.092Z,102840.81
2022-10-19T08:08:53.896Z,102844.47
2022-10-19T08:11:24.382Z,102837.34
2022-10-19T08:13:54.152Z,102837.44
2022-10-19T08:16:25.518Z,102843.22
2022-10-19T08:18:57.360Z,102852.38
2022-10-19T08:21:25.287Z,102846.28
2022-10-19T08:23:52.555Z,102852.13
2022-10-19T08:26:20.486Z,102850.72
2022-10-19T08:28:48.539Z,102847.47
2022-10-19T08:31:21.217Z,102854.94
2022-10-19T08:33:51.020Z,102857.25
2022-10-19T08:36:19.816Z,102859.56
2022-10-19T08:38:48.949Z,102845.97
2022-10-19T08:41:29.303Z,102845.81
2022-10-19T08:44:16.550Z,102848.75
2022-10-19T08:47:00.510Z,102849.00
2022-10-19T08:49:32.154Z,102847.41
2022-10-19T08:52:07.214Z,102851.94
2022-10-19T08:57:39.783Z,102850.56
2022-10-19T09:00:17.660Z,102851.72
2022-10-19T09:03:03.607Z,102850.75
2022-10-19T09:05:44.880Z,102852.13
2022-10-19T09:08:17.571Z,102853.09
2022-10-19T09:10:50.829Z,102854.69
2022-10-19T09:13:41.599Z,102844.06
2022-10-19T09:16:17.278Z,102841.72
2022-10-19T09:18:49.710Z,102846.19
2022-10-19T09:21:28.155Z,102838.47
2022-10-19T09:24:08.177Z,102844.31
2022-10-19T09:26:53.251Z,102851.09
2022-10-19T09:29:29.749Z,102848.59
2022-10-19T09:32:03.657Z,102843.91
2022-10-19T09:34:37.792Z,102844.44
2022-10-19T09:37:05.197Z,102843.69
2022-10-19T09:39:32.941Z,102837.13
2022-10-19T09:42:10.493Z,102839.69
2022-10-19T09:44:38.546Z,102837.84
2022-10-19T09:47:29.283Z,102837.66
2022-10-19T09:50:19.108Z,102838.84
2022-10-19T09:52:48.116Z,102837.22
2022-10-19T09:55:28.711Z,102841.94
2022-10-19T09:58:05.922Z,102835.84
2022-10-19T10:00:42.803Z,102838.88
2022-10-19T10:03:26.272Z,102835.53
2022-10-19T10:05:58.835Z,102831.66
2022-10-19T10:08:29.965Z,102832.13
2022-10-19T10:11:09.179Z,102830.16
2022-10-19T10:13:39.832Z,102830.19
2022-10-19T10:16:14.301Z,102822.72
2022-10-19T10:18:55.300Z,102823.78
2022-10-19T10:21:28.777Z,102818.59
2022-10-19T10:24:06.747Z,102814.44
2022-10-19T10:26:40.560Z,102823.69
2022-10-19T10:29:20.281Z,102819.94
2022-10-19T10:31:52.196Z,102824.84
2022-10-19T10:34:45.589Z,102821.28
2022-10-19T10:37:23.108Z,102826.63
2022-10-19T10:39:57.673Z,102824.94
2022-10-19T10:42:35.128Z,102820.97
2022-10-19T10:45:04.935Z,102829.22
2022-10-19T10:47:32.808Z,102821.19
2022-10-19T10:50:05.894Z,102816.28
2022-10-19T10:52:36.692Z,102821.63
2022-10-19T10:55:18.032Z,102824.03
2022-10-19T10:57:51.907Z,102831.09
2022-10-19T11:00:21.745Z,102831.28
2022-10-19T11:02:58.758Z,102821.13
2022-10-19T11:05:31.644Z,102815.53
2022-10-19T11:08:15.135Z,102811.41
2022-10-19T11:10:52.717Z,102807.34
2022-10-19T11:13:30.985Z,102796.00
2022-10-19T11:16:06.617Z,102792.19
2022-10-19T11:18:40.541Z,102795.75
2022-10-19T11:21:14.010Z,102800.16
2022-10-19T11:23:56.915Z,102784.13
2022-10-19T11:26:46.028Z,102782.69
2022-10-19T11:29:39.754Z,102787.94
2022-10-19T11:32:20.579Z,102774.81
2022-10-19T11:35:12.264Z,102781.03
2022-10-19T11:38:17.401Z,102769.19
2022-10-19T11:41:13.219Z,102771.16
2022-10-19T11:43:54.523Z,102759.50
2022-10-19T11:46:28.682Z,102746.03
2022-10-19T11:49:17.949Z,102747.53
2022-10-19T11:51:57.517Z,102742.97
2022-10-19T11:54:55.893Z,102742.00
2022-10-19T11:57:32.776Z,102736.16
2022-10-19T12:00:15.418Z,102727.03
2022-10-19T12:03:49.745Z,102728.47
2022-10-19T12:06:28.761Z,102737.53
2022-10-19T12:09:20.274Z,102741.59
2022-10-19T12:12:22.587Z,102733.41
2022-10-19T12:14:56.196Z,102730.38
2022-10-19T12:18:49.329Z,102726.88
2022-10-19T12:21:25.518Z,102720.50
2022-10-19T12:23:56.910Z,102710.88
2022-10-19T12:26:27.882Z,102703.06
2022-10-19T14:31:37.277Z,102607.63
2022-10-19T14:34:09.180Z,102603.25
2022-10-19T14:36:43.774Z,102597.06
2022-10-19T14:39:25.779Z,102596.41
2022-10-19T14:41:55.693Z,102598.03
2022-10-19T14:44:40.728Z,102585.41
2022-10-19T14:47:20.419Z,102589.28
2022-10-19T14:49:48.442Z,102578.97
2022-10-19T14:52:22.948Z,102585.50
2022-10-19T14:54:54.754Z,102586.47
2022-10-19T14:57:32.142Z,102577.09
2022-10-19T15:00:06.138Z,102584.72
2022-10-19T15:02:40.014Z,102595.16
2022-10-19T15:05:20.265Z,102583.59
2022-10-19T15:07:48.258Z,102572.88
2022-10-19T15:10:22.515Z,102563.78
2022-10-19T15:12:51.626Z,102570.13
2022-10-19T15:15:25.583Z,102570.72
2022-10-19T15:17:57.279Z,102576.47
2022-10-19T15:20:28.758Z,102570.97
2022-10-19T15:22:57.597Z,102577.91
2022-10-19T15:25:37.043Z,102570.09
2022-10-19T15:28:31.101Z,102568.88
2022-10-19T15:31:00.740Z,102572.69
2022-10-19T15:33:29.562Z,102565.63
2022-10-19T15:36:07.771Z,102559.41
2022-10-19T15:38:35.670Z,102555.84
2022-10-19T15:41:04.897Z,102551.28
2022-10-19T15:43:45.664Z,102555.91
2022-10-19T15:46:31.905Z,102552.13
2022-10-19T15:49:16.831Z,102549.28
2022-10-19T15:51:45.793Z,102549.25
2022-10-19T15:54:16.931Z,102553.28
2022-10-19T15:56:47.092Z,102560.41
2022-10-19T15:59:17.312Z,102561.81
2022-10-19T16:01:51.371Z,102553.81
2022-10-19T16:04:23.427Z,102557.09
2022-10-19T16:06:50.524Z,102555.47
2022-10-19T16:09:20.844Z,102554.81
2022-10-19T16:11:48.655Z,102552.13
2022-10-19T16:16:50.305Z,102552.34
2022-10-19T16:19:17.329Z,102554.00
2022-10-19T16:21:50.164Z,102559.50
2022-10-19T16:24:17.522Z,102550.59
2022-10-19T16:26:44.510Z,102551.81
2022-10-19T16:29:11.426Z,102555.31
2022-10-19T16:31:38.638Z,102557.16
2022-10-19T16:34:05.570Z,102551.63
2022-10-19T16:36:32.538Z,102554.31
2022-10-19T16:39:01.388Z,102556.97
2022-10-19T16:41:28.390Z,102554.31
2022-10-19T16:43:56.213Z,102541.94
2022-10-19T16:46:24.284Z,102546.66
2022-10-19T16:48:52.072Z,102548.69
2022-10-19T16:51:34.941Z,102552.94
2022-10-19T16:54:05.815Z,102544.72
2022-10-19T16:56:34.883Z,102546.75
2022-10-19T16:59:05.972Z,102547.97
2022-10-19T17:01:36.957Z,102543.66
2022-10-19T17:04:18.966Z,102547.22
2022-10-19T17:06:49.926Z,102537.94
2022-10-19T17:12:07.627Z,102551.75
2022-10-19T17:14:35.100Z,102547.63
2022-10-19T17:17:02.261Z,102548.00
2022-10-19T17:19:29.344Z,102554.34
2022-10-19T17:21:58.892Z,102556.38
2022-10-19T17:24:27.210Z,102560.25
2022-10-19T17:26:54.435Z,102560.59
2022-10-19T17:29:22.978Z,102561.63
2022-10-19T17:31:50.627Z,102558.97
2022-10-19T17:34:18.150Z,102559.78
2022-10-19T17:36:46.483Z,102557.31
2022-10-19T17:39:17.745Z,102553.34
2022-10-19T17:41:48.451Z,102554.72
2022-10-19T17:44:17.466Z,102555.47
2022-10-19T17:46:44.725Z,102555.38
2022-10-19T17:49:12.413Z,102561.06
2022-10-19T17:51:40.840Z,102569.63
2022-10-19T17:54:11.908Z,102566.88
2022-10-19T17:56:40.326Z,102569.41
2022-10-19T17:59:09.025Z,102571.16
2022-10-19T18:01:37.050Z,102568.25
2022-10-19T18:04:05.019Z,102562.59
2022-10-19T18:06:34.186Z,102555.94
2022-10-19T18:09:05.471Z,102559.16
2022-10-19T18:11:36.939Z,102559.53
2022-10-19T18:14:05.567Z,102563.19
2022-10-19T18:16:37.084Z,102556.38
2022-10-19T18:19:05.398Z,102552.88
2022-10-19T18:21:38.401Z,102555.72
2022-10-19T18:24:09.111Z,102550.41
2022-10-19T18:26:39.623Z,102555.09
2022-10-19T18:29:12.612Z,102555.25
2022-10-19T18:31:41.769Z,102558.75
2022-10-19T18:34:13.914Z,102556.81
2022-10-19T18:36:41.136Z,102558.84
2022-10-19T18:39:08.168Z,102554.84
2022-10-19T18:41:35.158Z,102554.22
2022-10-19T18:44:05.225Z,102557.91
2022-10-19T18:46:35.452Z,102560.72
2022-10-19T18:49:08.106Z,102556.56
2022-10-19T18:51:35.843Z,102550.41
2022-10-19T18:54:03.272Z,102545.09
2022-10-19T18:56:30.293Z,102539.75
2022-10-19T18:58:57.392Z,102534.41
2022-10-19T19:01:27.182Z,102534.63
2022-10-19T19:03:57.063Z,102527.59
2022-10-19T19:06:29.260Z,102528.00
2022-10-19T19:08:58.135Z,102519.50
2022-10-19T19:11:30.650Z,102515.38
2022-10-19T19:14:02.708Z,102500.41
2022-10-19T19:16:34.344Z,102499.56
2022-10-19T19:19:01.837Z,102492.41
2022-10-19T19:21:31.999Z,102495.06
2022-10-19T19:24:01.403Z,102492.41
2022-10-19T19:26:32.945Z,102485.59
2022-10-19T19:29:01.079Z,102491.94
2022-10-19T19:31:28.083Z,102478.16
2022-10-19T19:33:55.275Z,102480.81
2022-10-19T19:36:22.354Z,102482.84
2022-10-19T19:38:53.679Z,102479.16
2022-10-19T19:41:20.885Z,102478.31
2022-10-19T19:43:47.836Z,102474.66
2022-10-19T19:46:18.467Z,102481.81
2022-10-19T19:48:48.147Z,102479.16
2022-10-19T19:51:20.920Z,102469.88
2022-10-19T19:53:49.712Z,102461.03
2022-10-19T19:56:17.734Z,102465.53
2022-10-19T19:58:45.710Z,102471.25
2022-10-19T20:01:16.362Z,102462.94
2022-10-19T20:03:45.046Z,102461.63
2022-10-19T20:06:13.627Z,102463.66
2022-10-19T20:08:41.278Z,102469.50
2022-10-19T20:11:12.783Z,102467.72
2022-10-19T20:13:40.159Z,102474.75
2022-10-19T20:16:09.420Z,102470.78
2022-10-19T20:18:36.435Z,102472.16
2022-10-19T20:21:05.260Z,102474.97
2022-10-19T20:23:32.442Z,102474.13
2022-10-19T20:25:59.354Z,102468.81
2022-10-19T20:28:28.289Z,102474.13
2022-10-19T20:31:02.927Z,102473.66
2022-10-19T20:33:30.866Z,102470.50
2022-10-19T20:36:02.926Z,102470.06
2022-10-19T20:38:29.944Z,102469.41
2022-10-19T20:40:56.865Z,102468.75
2022-10-19T20:43:23.863Z,102468.91
2022-10-19T20:45:52.116Z,102479.56
2022-10-19T20:48:19.067Z,102471.56
2022-10-19T20:50:46.003Z,102471.56
2022-10-19T20:53:12.936Z,102461.13
2022-10-19T20:55:39.877Z,102454.97
2022-10-19T20:58:06.830Z,102456.63
2022-10-19T21:00:33.821Z,102453.97
2022-10-19T21:03:02.131Z,102451.47
2022-10-19T21:05:29.178Z,102443.66
2022-10-19T21:07:56.195Z,102438.53
2022-10-19T21:10:23.148Z,102443.00
2022-10-19T21:12:50.094Z,102441.00
2022-10-19T21:15:17.266Z,102436.50
2022-10-19T21:17:44.189Z,102433.03
2022-10-19T21:20:12.475Z,102428.69
2022-10-19T21:22:41.347Z,102424.72
2022-10-19T21:25:10.220Z,102426.94
2022-10-19T21:27:37.552Z,102416.63
2022-10-19T21:30:05.914Z,102412.47
2022-10-19T21:32:32.970Z,102410.81
2022-10-19T21:34:59.909Z,102409.53
2022-10-19T21:37:29.253Z,102407.19
2022-10-19T21:39:56.264Z,102397.91
2022-10-19T21:42:23.196Z,102392.09
2022-10-19T21:44:54.050Z,102403.91
2022-10-19T21:47:27.994Z,102406.94
2022-10-19T21:49:54.969Z,102404.63
2022-10-19T21:52:21.895Z,102401.31
2022-10-19T21:54:50.222Z,102400.03
2022-10-19T21:57:17.278Z,102395.88
2022-10-19T21:59:44.240Z,102389.06
2022-10-19T22:02:11.262Z,102393.75
2022-10-19T22:04:38.303Z,102388.91
2022-10-19T22:07:05.282Z,102378.81
2022-10-19T22:09:32.234Z,102378.00
2022-10-19T22:12:00.638Z,102377.03
2022-10-19T22:14:27.673Z,102379.03
2022-10-19T22:16:54.630Z,102380.56
2022-10-19T22:19:21.541Z,102365.63
2022-10-19T22:21:48.503Z,102368.81
2022-10-19T22:24:15.818Z,102358.38
2022-10-19T22:26:45.531Z,102355.19
2022-10-19T22:29:14.429Z,102346.75
2022-10-19T22:31:41.895Z,102342.63
2022-10-19T22:34:13.034Z,102334.47
2022-10-19T22:36:40.346Z,102335.47
2022-10-19T22:39:07.660Z,102338.13
2022-10-19T22:41:34.592Z,102339.31
2022-10-19T22:44:01.752Z,102345.59
2022-10-19T22:46:30.010Z,102332.84
2022-10-19T22:48:57.776Z,102329.03
2022-10-19T22:51:24.885Z,102319.56
2022-10-19T22:53:51.787Z,102323.56
2022-10-19T22:56:18.684Z,102321.44
2022-10-19T22:58:45.594Z,102324.59
2022-10-19T23:01:15.408Z,102326.91
2022-10-19T23:03:44.400Z,102335.22
2022-10-19T23:06:15.003Z,102338.03
2022-10-19T23:08:43.307Z,102332.56
2022-10-19T23:11:10.976Z,102325.59
2022-10-19T23:13:37.964Z,102322.63
2022-10-19T23:16:06.280Z,102326.09
2022-10-19T23:18:34.938Z,102328.09
2022-10-19T23:21:06.084Z,102322.78
2022-10-19T23:23:35.002Z,102317.00
2022-10-19T23:26:05.665Z,102313.66
2022-10-19T23:28:34.769Z,102307.53
2022-10-19T23:31:05.432Z,102305.03
2022-10-19T23:33:33.232Z,102301.06
2022-10-19T23:36:08.240Z,102304.41
2022-10-19T23:38:35.756Z,102298.25
2022-10-19T23:41:03.098Z,102306.34
2022-10-19T23:43:31.108Z,102304.53
2022-10-19T23:45:58.126Z,102304.41
2022-10-19T23:48:25.346Z,102288.47
2022-10-19T23:51:01.004Z,102284.44
2022-10-19T23:53:34.646Z,102288.78
2022-10-19T23:56:07.017Z,102281.78
2022-10-19T23:58:34.669Z,102277.16
